createdAt,value
2023-05-24T00:01:26.581Z,97715.91
2023-05-24T00:03:53.910Z,97717.69
2023-05-24T00:06:21.008Z,97737.00
2023-05-24T00:08:48.513Z,97722.25
2023-05-24T00:11:15.244Z,97714.00
2023-05-24T00:13:41.925Z,97719.47
2023-05-24T00:16:08.859Z,97729.09
2023-05-24T00:18:35.629Z,97719.75
2023-05-24T00:21:02.405Z,97746.19
2023-05-24T00:23:29.350Z,97739.56
2023-05-24T00:25:56.062Z,97723.88
2023-05-24T00:28:25.970Z,97722.34
2023-05-24T00:30:52.786Z,97723.88
2023-05-24T00:33:24.009Z,97724.88
2023-05-24T00:35:56.432Z,97715.78
2023-05-24T00:38:24.253Z,97721.69
2023-05-24T00:40:51.163Z,97716.19
2023-05-24T00:43:17.957Z,97716.31
2023-05-24T00:45:44.938Z,97721.84
2023-05-24T00:48:11.780Z,97699.09
2023-05-24T00:50:40.098Z,97714.38
2023-05-24T00:53:07.656Z,97703.22
2023-05-24T00:55:36.992Z,97704.88
2023-05-24T00:58:03.664Z,97707.91
2023-05-24T01:00:32.637Z,97699.09
2023-05-24T01:03:01.252Z,97688.94
2023-05-24T01:05:28.040Z,97696.06
2023-05-24T01:08:02.927Z,97705.44
2023-05-24T01:10:56.667Z,97698.25
2023-05-24T01:13:39.076Z,97692.59
2023-05-24T01:16:08.289Z,97694.41
2023-05-24T01:18:59.701Z,97698.09
2023-05-24T01:21:48.349Z,97703.59
2023-05-24T01:24:37.173Z,97699.63
2023-05-24T01:27:08.164Z,97692.41
2023-05-24T01:29:35.887Z,97707.13
2023-05-24T01:32:03.560Z,97698.16
2023-05-24T01:34:30.414Z,97691.03
2023-05-24T01:36:57.104Z,97702.69
2023-05-24T01:39:27.694Z,97688.50
2023-05-24T01:42:06.644Z,97705.56
2023-05-24T01:44:43.961Z,97687.91
2023-05-24T01:47:28.897Z,97694.97
2023-05-24T01:50:07.065Z,97683.56
2023-05-24T01:52:35.590Z,97690.69
2023-05-24T01:55:03.410Z,97675.03
2023-05-24T01:57:31.014Z,97692.78
2023-05-24T01:59:58.587Z,97679.03
2023-05-24T02:02:25.359Z,97668.16
2023-05-24T02:04:52.074Z,97674.75
2023-05-24T02:07:19.339Z,97670.44
2023-05-24T02:09:46.090Z,97659.53
2023-05-24T02:12:12.843Z,97652.91
2023-05-24T02:14:39.656Z,97664.88
2023-05-24T02:17:06.796Z,97672.06
2023-05-24T02:19:36.939Z,97654.00
2023-05-24T02:22:03.814Z,97655.22
2023-05-24T02:24:30.643Z,97651.09
2023-05-24T02:26:57.599Z,97649.31
2023-05-24T02:29:24.484Z,97652.88
2023-05-24T02:31:56.435Z,97660.84
2023-05-24T02:34:23.810Z,97652.88
2023-05-24T02:36:51.576Z,97659.50
2023-05-24T02:39:18.316Z,97649.19
2023-05-24T02:41:44.974Z,97649.06
2023-05-24T02:44:12.018Z,97659.44
2023-05-24T02:46:38.736Z,97645.28
2023-05-24T02:49:05.426Z,97660.75
2023-05-24T02:51:32.781Z,97655.50
2023-05-24T02:53:59.590Z,97648.91
2023-05-24T02:56:26.723Z,97663.63
2023-05-24T02:58:54.332Z,97647.53
2023-05-24T03:01:21.881Z,97657.44
2023-05-24T03:03:48.958Z,97645.16
2023-05-24T03:06:15.772Z,97650.50
2023-05-24T03:08:42.723Z,97644.38
2023-05-24T03:11:09.559Z,97650.69
2023-05-24T03:13:36.456Z,97656.19
2023-05-24T03:16:03.340Z,97645.44
2023-05-24T03:18:30.053Z,97651.66
2023-05-24T03:20:56.657Z,97651.19
2023-05-24T03:23:23.389Z,97650.00
2023-05-24T03:25:50.017Z,97642.59
2023-05-24T03:28:16.698Z,97635.72
2023-05-24T03:30:43.971Z,97629.66
2023-05-24T03:33:11.060Z,97650.03
2023-05-24T03:35:37.785Z,97639.66
2023-05-24T03:38:04.424Z,97639.25
2023-05-24T03:40:33.766Z,97642.91
2023-05-24T03:43:01.876Z,97639.72
2023-05-24T03:45:38.516Z,97648.97
2023-05-24T03:48:06.379Z,97652.28
2023-05-24T03:50:33.086Z,97659.72
2023-05-24T03:52:59.719Z,97652.47
2023-05-24T03:55:26.335Z,97662.28
2023-05-24T03:57:52.970Z,97661.88
2023-05-24T04:00:19.710Z,97663.00
2023-05-24T04:02:46.505Z,97673.22
2023-05-24T04:05:13.964Z,97677.88
2023-05-24T04:07:41.165Z,97676.69
2023-05-24T04:10:08.379Z,97678.47
2023-05-24T04:12:35.705Z,97674.06
2023-05-24T04:15:02.859Z,97693.91
2023-05-24T04:17:30.964Z,97697.19
2023-05-24T04:19:57.788Z,97695.69
2023-05-24T04:22:25.700Z,97696.34
2023-05-24T04:24:52.842Z,97684.63
2023-05-24T04:27:20.604Z,97693.97
2023-05-24T04:29:49.895Z,97691.00
2023-05-24T04:32:18.012Z,97701.56
2023-05-24T04:34:46.037Z,97699.38
2023-05-24T04:37:13.996Z,97721.47
2023-05-24T04:39:41.072Z,97717.03
2023-05-24T04:42:07.928Z,97704.91
2023-05-24T04:44:34.794Z,97713.44
2023-05-24T04:47:03.896Z,97713.31
2023-05-24T04:49:30.706Z,97706.53
2023-05-24T04:51:57.438Z,97700.56
2023-05-24T04:54:24.457Z,97711.69
2023-05-24T04:56:51.597Z,97725.09
2023-05-24T04:59:18.729Z,97726.47
2023-05-24T05:01:45.408Z,97727.59
2023-05-24T05:04:12.129Z,97734.22
2023-05-24T05:06:40.571Z,97737.44
2023-05-24T05:09:11.718Z,97746.34
2023-05-24T05:11:38.657Z,97744.47
2023-05-24T05:14:06.311Z,97736.50
2023-05-24T05:16:33.114Z,97721.25
2023-05-24T05:18:59.806Z,97719.72
2023-05-24T05:21:26.448Z,97738.25
2023-05-24T05:23:55.299Z,97732.84
2023-05-24T05:26:22.414Z,97737.25
2023-05-24T05:28:49.202Z,97724.19
2023-05-24T05:31:15.965Z,97721.84
2023-05-24T05:33:42.649Z,97717.25
2023-05-24T05:36:09.329Z,97709.00
2023-05-24T05:38:36.149Z,97700.06
2023-05-24T05:41:02.915Z,97710.81
2023-05-24T05:43:29.938Z,97695.50
2023-05-24T05:45:56.865Z,97695.44
2023-05-24T05:48:23.776Z,97699.94
2023-05-24T05:50:50.782Z,97696.00
2023-05-24T05:53:17.534Z,97692.72
2023-05-24T05:55:44.290Z,97695.69
2023-05-24T05:58:12.144Z,97693.69
2023-05-24T06:00:40.973Z,97711.16
2023-05-24T06:03:08.188Z,97704.38
2023-05-24T06:05:35.001Z,97705.53
2023-05-24T06:10:37.027Z,97720.31
2023-05-24T06:13:04.904Z,97708.78
2023-05-24T06:15:33.381Z,97709.63
2023-05-24T06:18:02.513Z,97719.53
2023-05-24T06:20:29.358Z,97719.69
2023-05-24T06:22:57.444Z,97718.31
2023-05-24T06:25:24.662Z,97708.69
2023-05-24T06:27:51.962Z,97721.16
2023-05-24T06:30:19.085Z,97722.22
2023-05-24T06:32:46.247Z,97714.13
2023-05-24T06:35:13.282Z,97714.44
2023-05-24T06:37:43.671Z,97715.13
2023-05-24T06:40:21.732Z,97729.25
2023-05-24T06:45:35.299Z,97721.97
2023-05-24T06:53:23.892Z,97750.25
2023-05-24T06:58:42.241Z,97755.56
2023-05-24T07:01:09.502Z,97748.69
2023-05-24T07:03:37.496Z,97733.22
2023-05-24T07:06:04.578Z,97731.81
2023-05-24T07:08:31.548Z,97739.13
2023-05-24T07:10:58.425Z,97740.28
2023-05-24T07:13:26.422Z,97738.31
2023-05-24T07:15:53.283Z,97739.16
2023-05-24T07:18:20.079Z,97751.66
2023-05-24T07:20:47.385Z,97743.44
2023-05-24T07:23:14.704Z,97735.81
2023-05-24T07:25:41.965Z,97742.44
2023-05-24T07:28:09.006Z,97739.41
2023-05-24T07:33:13.390Z,97744.38
2023-05-24T07:35:40.506Z,97746.41
2023-05-24T07:38:07.989Z,97757.66
2023-05-24T07:40:35.607Z,97741.03
2023-05-24T07:43:04.085Z,97745.13
2023-05-24T07:45:31.916Z,97748.91
2023-05-24T07:48:03.934Z,97752.06
2023-05-24T07:50:52.658Z,97754.69
2023-05-24T07:56:01.499Z,97757.38
2023-05-24T07:58:28.380Z,97753.56
2023-05-24T08:00:55.898Z,97746.78
2023-05-24T08:03:25.406Z,97757.81
2023-05-24T08:05:57.186Z,97757.91
2023-05-24T08:11:09.994Z,97765.63
2023-05-24T08:13:37.038Z,97765.13
2023-05-24T08:16:06.475Z,97759.16
2023-05-24T08:21:15.711Z,97768.28
2023-05-24T08:23:42.486Z,97771.91
2023-05-24T08:28:54.722Z,97766.56
2023-05-24T08:31:22.314Z,97775.53
2023-05-24T08:33:51.093Z,97759.31
2023-05-24T08:36:18.430Z,97763.66
2023-05-24T08:38:45.223Z,97776.59
2023-05-24T08:41:12.357Z,97758.56
2023-05-24T08:43:40.375Z,97757.16
2023-05-24T08:46:07.584Z,97767.47
2023-05-24T08:51:34.070Z,97764.91
2023-05-24T08:54:01.438Z,97762.44
2023-05-24T08:56:31.506Z,97783.13
2023-05-24T09:01:40.216Z,97773.41
2023-05-24T09:04:07.936Z,97787.50
2023-05-24T09:09:24.972Z,97774.56
2023-05-24T09:11:54.069Z,97779.34
2023-05-24T09:14:21.019Z,97757.47
2023-05-24T09:16:48.038Z,97762.72
2023-05-24T09:19:15.288Z,97759.75
2023-05-24T09:34:44.557Z,97749.78
2023-05-24T09:37:17.104Z,97750.19
2023-05-24T09:39:48.371Z,97748.53
2023-05-24T09:42:15.867Z,97766.13
2023-05-24T09:44:43.640Z,97751.06
2023-05-24T09:47:17.187Z,97754.31
2023-05-24T09:52:36.898Z,97753.31
2023-05-24T09:57:39.385Z,97768.94
2023-05-24T10:03:05.554Z,97750.41
2023-05-24T10:05:32.514Z,97754.28
2023-05-24T10:07:59.774Z,97752.25
2023-05-24T10:10:32.491Z,97750.56
2023-05-24T10:15:31.046Z,97753.22
2023-05-24T10:18:00.807Z,97760.84
2023-05-24T10:20:28.696Z,97751.91
2023-05-24T10:23:00.990Z,97768.00
2023-05-24T10:25:29.387Z,97766.84
2023-05-24T10:28:02.558Z,97754.09
2023-05-24T10:36:09.747Z,97757.47
2023-05-24T10:38:49.622Z,97764.09
2023-05-24T10:41:18.505Z,97752.53
2023-05-24T10:44:04.880Z,97752.97
2023-05-24T10:49:07.048Z,97753.09
2023-05-24T10:51:37.192Z,97758.47
2023-05-24T10:54:27.917Z,97756.63
2023-05-24T10:56:54.822Z,97753.91
2023-05-24T10:59:39.229Z,97751.78
2023-05-24T11:02:14.242Z,97749.44
2023-05-24T11:04:46.403Z,97745.88
2023-05-24T11:07:15.618Z,97742.16
2023-05-24T11:09:53.136Z,97740.19
2023-05-24T11:12:23.828Z,97737.44
2023-05-24T11:14:54.877Z,97738.19
2023-05-24T11:17:23.221Z,97756.41
2023-05-24T11:19:53.602Z,97755.03
2023-05-24T11:22:22.841Z,97744.59
2023-05-24T11:27:46.871Z,97735.22
2023-05-24T11:33:05.068Z,97736.97
2023-05-24T11:35:32.465Z,97745.78
2023-05-24T11:38:00.533Z,97748.88
2023-05-24T11:40:27.370Z,97739.66
2023-05-24T11:42:54.420Z,97762.41
2023-05-24T11:48:10.917Z,97759.78
2023-05-24T11:50:49.353Z,97750.38
2023-05-24T11:56:06.624Z,97763.38
2023-05-24T11:58:57.081Z,97749.81
2023-05-24T12:01:35.336Z,97752.00
2023-05-24T12:04:03.558Z,97755.97
2023-05-24T12:06:39.487Z,97755.13
2023-05-24T12:09:08.779Z,97770.94
2023-05-24T12:11:41.163Z,97774.66
2023-05-24T12:14:12.750Z,97781.81
2023-05-24T12:16:39.681Z,97770.19
2023-05-24T12:19:14.040Z,97773.47
2023-05-24T12:21:43.954Z,97770.97
2023-05-24T12:24:19.817Z,97772.75
2023-05-24T12:26:50.313Z,97767.34
2023-05-24T12:29:20.207Z,97769.53
2023-05-24T12:31:50.108Z,97770.00
2023-05-24T12:34:18.927Z,97761.84
2023-05-24T12:36:46.650Z,97769.78
2023-05-24T12:39:20.798Z,97767.16
2023-05-24T12:41:54.977Z,97769.88
2023-05-24T12:44:25.529Z,97752.88
2023-05-24T12:46:54.099Z,97748.69
2023-05-24T12:49:21.256Z,97752.56
2023-05-24T12:51:49.554Z,97746.91
2023-05-24T12:54:19.247Z,97758.94
2023-05-24T12:56:46.451Z,97764.28
2023-05-24T12:59:17.441Z,97761.84
2023-05-24T13:01:47.329Z,97760.88
2023-05-24T13:04:15.073Z,97765.50
2023-05-24T13:06:44.089Z,97782.59
2023-05-24T13:09:11.916Z,97769.38
2023-05-24T13:11:39.055Z,97769.94
2023-05-24T13:14:06.494Z,97765.22
2023-05-24T13:16:34.003Z,97765.00
2023-05-24T13:19:00.896Z,97770.53
2023-05-24T13:21:27.999Z,97770.47
2023-05-24T13:23:55.331Z,97771.88
2023-05-24T13:26:26.769Z,97760.66
2023-05-24T13:29:22.503Z,97770.63
2023-05-24T13:31:43.600Z,97765.03
2023-05-24T13:34:11.479Z,97761.13
2023-05-24T13:36:38.861Z,97759.75
2023-05-24T13:41:39.005Z,97769.94
2023-05-24T13:44:06.044Z,97750.44
2023-05-24T13:46:34.138Z,97746.53
2023-05-24T13:49:01.331Z,97760.03
2023-05-24T13:51:31.380Z,97753.38
2023-05-24T13:54:02.039Z,97758.94
2023-05-24T13:56:36.589Z,97754.84
2023-05-24T13:59:04.616Z,97751.31
2023-05-24T14:01:32.629Z,97745.16
2023-05-24T14:04:02.450Z,97761.53
2023-05-24T14:06:29.384Z,97749.25
2023-05-24T14:08:56.250Z,97759.69
2023-05-24T14:11:24.805Z,97758.97
2023-05-24T14:16:22.046Z,97756.84
2023-05-24T14:18:50.482Z,97761.00
2023-05-24T14:21:18.799Z,97762.16
2023-05-24T14:23:47.337Z,97767.63
2023-05-24T14:26:14.982Z,97766.84
2023-05-24T14:28:42.089Z,97751.50
2023-05-24T14:31:09.056Z,97748.16
2023-05-24T14:33:36.058Z,97752.50
2023-05-24T14:36:02.875Z,97734.25
2023-05-24T14:38:29.922Z,97736.38
2023-05-24T14:41:07.344Z,97746.41
2023-05-24T14:43:34.061Z,97747.25
2023-05-24T14:46:00.844Z,97751.03
2023-05-24T14:48:27.680Z,97752.63
2023-05-24T14:50:54.435Z,97755.16
2023-05-24T14:53:21.531Z,97757.81
2023-05-24T14:55:48.769Z,97754.88
2023-05-24T14:58:15.436Z,97753.34
2023-05-24T15:00:43.086Z,97752.94
2023-05-24T15:03:12.715Z,97754.00
2023-05-24T15:05:40.022Z,97756.41
2023-05-24T15:08:07.936Z,97765.25
2023-05-24T15:10:35.122Z,97767.69
2023-05-24T15:13:04.189Z,97756.00
2023-05-24T15:15:31.587Z,97760.09
2023-05-24T15:18:00.103Z,97759.75
2023-05-24T15:20:27.484Z,97766.44
2023-05-24T15:22:54.602Z,97766.81
2023-05-24T15:25:21.504Z,97769.84
2023-05-24T15:27:48.661Z,97768.25
2023-05-24T15:30:17.464Z,97760.84
2023-05-24T15:32:46.195Z,97778.00
2023-05-24T15:35:13.199Z,97752.00
2023-05-24T15:37:40.764Z,97756.44
2023-05-24T15:40:09.889Z,97745.94
2023-05-24T15:42:36.618Z,97760.84
2023-05-24T15:45:03.511Z,97766.31
2023-05-24T15:47:30.514Z,97742.22
2023-05-24T15:49:57.438Z,97746.00
2023-05-24T15:52:24.240Z,97748.91
2023-05-24T15:54:51.088Z,97752.72
2023-05-24T15:57:18.494Z,97758.53
2023-05-24T15:59:45.282Z,97742.34
2023-05-24T16:02:12.080Z,97762.31
2023-05-24T16:04:39.429Z,97754.38
2023-05-24T16:07:06.696Z,97771.19
2023-05-24T16:09:33.503Z,97779.66
2023-05-24T16:12:01.224Z,97766.03
2023-05-24T16:14:28.087Z,97757.63
2023-05-24T16:16:57.304Z,97767.59
2023-05-24T16:19:25.577Z,97781.84
2023-05-24T16:21:52.203Z,97785.97
2023-05-24T16:24:18.915Z,97771.34
2023-05-24T16:26:45.691Z,97768.16
2023-05-24T16:29:14.976Z,97768.59
2023-05-24T16:31:41.731Z,97757.50
2023-05-24T16:34:08.609Z,97765.88
2023-05-24T16:36:35.576Z,97746.97
2023-05-24T16:39:02.356Z,97742.88
2023-05-24T16:41:35.344Z,97755.44
2023-05-24T16:44:02.145Z,97748.88
2023-05-24T16:46:29.049Z,97745.78
2023-05-24T16:48:56.053Z,97728.97
2023-05-24T16:51:22.944Z,97742.31
2023-05-24T16:53:49.733Z,97737.78
2023-05-24T16:56:16.742Z,97741.13
2023-05-24T16:58:43.509Z,97722.47
2023-05-24T17:01:10.350Z,97739.63
2023-05-24T17:03:37.203Z,97732.22
2023-05-24T17:06:05.422Z,97737.28
2023-05-24T17:08:36.167Z,97741.41
2023-05-24T17:11:03.998Z,97740.50
2023-05-24T17:13:31.590Z,97729.63
2023-05-24T17:15:59.956Z,97742.13
2023-05-24T17:18:29.704Z,97727.41
2023-05-24T17:21:01.435Z,97740.56
2023-05-24T17:23:31.115Z,97741.00
2023-05-24T17:25:58.368Z,97730.31
2023-05-24T17:28:29.067Z,97720.91
2023-05-24T17:30:56.500Z,97723.28
2023-05-24T17:33:24.100Z,97732.31
2023-05-24T17:35:51.305Z,97725.03
2023-05-24T17:38:18.566Z,97725.41
2023-05-24T17:40:45.403Z,97727.31
2023-05-24T17:43:12.634Z,97730.66
2023-05-24T17:45:39.304Z,97722.91
2023-05-24T17:48:07.172Z,97743.19
2023-05-24T17:50:33.851Z,97732.50
2023-05-24T17:53:00.812Z,97734.16
2023-05-24T17:55:27.500Z,97743.72
2023-05-24T17:57:54.144Z,97753.09
2023-05-24T18:00:20.912Z,97757.91
2023-05-24T18:02:47.644Z,97746.53
2023-05-24T18:05:16.035Z,97747.47
2023-05-24T18:07:42.719Z,97748.84
2023-05-24T18:10:09.577Z,97759.69
2023-05-24T18:12:36.311Z,97760.88
2023-05-24T18:15:03.339Z,97763.66
2023-05-24T18:17:30.313Z,97772.22
2023-05-24T18:19:57.067Z,97759.91
2023-05-24T18:22:24.135Z,97781.47
2023-05-24T18:24:50.806Z,97776.41
2023-05-24T18:27:17.418Z,97768.38
2023-05-24T18:29:44.098Z,97778.28
2023-05-24T18:32:10.766Z,97782.28
2023-05-24T18:34:37.392Z,97781.97
2023-05-24T18:37:04.199Z,97783.09
2023-05-24T18:39:30.943Z,97785.91
2023-05-24T18:41:57.702Z,97781.13
2023-05-24T18:44:24.273Z,97791.84
2023-05-24T18:46:54.005Z,97783.28
2023-05-24T18:49:21.383Z,97775.38
2023-05-24T18:51:48.086Z,97792.81
2023-05-24T18:54:14.824Z,97778.97
2023-05-24T18:56:42.253Z,97784.75
2023-05-24T18:59:10.961Z,97792.63
2023-05-24T19:01:38.934Z,97788.47
2023-05-24T19:04:05.745Z,97791.44
2023-05-24T19:06:32.581Z,97796.97
2023-05-24T19:09:00.417Z,97796.44
2023-05-24T19:11:27.179Z,97786.78
2023-05-24T19:13:54.033Z,97781.81
2023-05-24T19:16:20.793Z,97790.34
2023-05-24T19:18:47.556Z,97784.00
2023-05-24T19:21:14.370Z,97810.31
2023-05-24T19:23:42.351Z,97808.44
2023-05-24T19:26:09.883Z,97790.91
2023-05-24T19:28:40.299Z,97787.94
2023-05-24T19:31:07.315Z,97793.50
2023-05-24T19:33:34.428Z,97794.41
2023-05-24T19:36:01.696Z,97799.13
2023-05-24T19:38:28.313Z,97811.09
2023-05-24T19:40:54.968Z,97798.81
2023-05-24T19:43:21.799Z,97819.81
2023-05-24T19:45:51.737Z,97819.75
2023-05-24T19:48:18.595Z,97822.97
2023-05-24T19:50:47.257Z,97821.16
2023-05-24T19:53:15.537Z,97829.31
2023-05-24T19:55:42.344Z,97816.44
2023-05-24T19:58:09.186Z,97814.97
2023-05-24T20:00:35.893Z,97823.00
2023-05-24T20:03:02.609Z,97842.50
2023-05-24T20:05:29.279Z,97839.06
2023-05-24T20:07:56.123Z,97828.34
2023-05-24T20:10:22.962Z,97836.06
2023-05-24T20:12:49.612Z,97842.13
2023-05-24T20:15:17.389Z,97838.72
2023-05-24T20:17:48.479Z,97847.41
2023-05-24T20:20:15.284Z,97832.84
2023-05-24T20:22:41.932Z,97841.69
2023-05-24T20:25:09.173Z,97838.66
2023-05-24T20:27:35.833Z,97846.38
2023-05-24T20:30:02.734Z,97866.66
2023-05-24T20:32:29.446Z,97853.03
2023-05-24T20:34:56.247Z,97863.53
2023-05-24T20:37:22.925Z,97856.22
2023-05-24T20:39:49.662Z,97855.84
2023-05-24T20:42:16.620Z,97854.03
2023-05-24T20:44:43.263Z,97850.84
2023-05-24T20:47:09.890Z,97861.09
2023-05-24T20:49:36.633Z,97859.00
2023-05-24T20:52:04.118Z,97852.38
2023-05-24T20:54:31.027Z,97852.53
2023-05-24T20:56:57.791Z,97861.34
2023-05-24T20:59:24.480Z,97860.53
2023-05-24T21:01:51.387Z,97856.84
2023-05-24T21:04:19.486Z,97854.78
2023-05-24T21:06:46.172Z,97847.31
2023-05-24T21:09:12.770Z,97850.75
2023-05-24T21:11:39.574Z,97848.16
2023-05-24T21:14:06.242Z,97863.22
2023-05-24T21:16:33.278Z,97857.81
2023-05-24T21:19:02.708Z,97868.00
2023-05-24T21:21:29.369Z,97876.72
2023-05-24T21:23:56.694Z,97866.78
2023-05-24T21:26:23.409Z,97864.16
2023-05-24T21:28:50.067Z,97882.34
2023-05-24T21:31:17.215Z,97872.31
2023-05-24T21:33:44.151Z,97881.53
2023-05-24T21:36:11.002Z,97883.59
2023-05-24T21:38:37.593Z,97882.91
2023-05-24T21:41:05.341Z,97876.56
2023-05-24T21:43:32.194Z,97878.47
2023-05-24T21:45:58.908Z,97885.94
2023-05-24T21:48:25.788Z,97895.41
2023-05-24T21:50:52.462Z,97890.72
2023-05-24T21:53:19.082Z,97888.66
2023-05-24T21:55:45.987Z,97896.38
2023-05-24T21:58:12.698Z,97881.50
2023-05-24T22:00:39.307Z,97894.44
2023-05-24T22:03:06.102Z,97902.44
2023-05-24T22:05:32.793Z,97903.53
2023-05-24T22:07:59.449Z,97906.03
2023-05-24T22:10:26.211Z,97904.66
2023-05-24T22:12:52.851Z,97896.94
2023-05-24T22:15:19.523Z,97903.53
2023-05-24T22:17:46.147Z,97898.59
2023-05-24T22:20:12.943Z,97904.78
2023-05-24T22:22:48.284Z,97886.69
2023-05-24T22:25:19.350Z,97895.22
2023-05-24T22:27:46.564Z,97896.03
2023-05-24T22:30:13.673Z,97892.44
2023-05-24T22:32:40.619Z,97907.91
2023-05-24T22:35:07.499Z,97899.50
2023-05-24T22:37:37.579Z,97902.63
2023-05-24T22:40:04.836Z,97898.47
2023-05-24T22:42:31.755Z,97894.34
2023-05-24T22:44:58.531Z,97902.63
2023-05-24T22:47:26.570Z,97893.75
2023-05-24T22:49:56.084Z,97901.38
2023-05-24T22:52:26.482Z,97901.53
2023-05-24T22:54:53.122Z,97885.41
2023-05-24T22:57:23.001Z,97893.06
2023-05-24T22:59:49.767Z,97903.97
2023-05-24T23:02:16.468Z,97907.50
2023-05-24T23:04:46.252Z,97905.03
2023-05-24T23:07:15.538Z,97914.38
2023-05-24T23:09:42.997Z,97898.47
2023-05-24T23:12:10.473Z,97888.81
2023-05-24T23:14:38.916Z,97892.25
2023-05-24T23:17:06.918Z,97885.63
2023-05-24T23:19:34.246Z,97896.19
2023-05-24T23:22:03.452Z,97882.56
2023-05-24T23:24:30.343Z,97901.94
2023-05-24T23:26:57.104Z,97888.22
2023-05-24T23:29:23.800Z,97906.88
2023-05-24T23:31:50.530Z,97900.66
2023-05-24T23:34:17.142Z,97893.34
2023-05-24T23:36:43.744Z,97889.16
2023-05-24T23:39:12.589Z,97899.09
2023-05-24T23:41:39.246Z,97891.56
2023-05-24T23:44:05.914Z,97909.69
2023-05-24T23:46:32.668Z,97905.47
2023-05-24T23:49:00.448Z,97890.88
2023-05-24T23:51:27.041Z,97902.94
2023-05-24T23:53:53.646Z,97905.28
2023-05-24T23:56:20.184Z,97906.25
2023-05-24T23:58:46.900Z,97915.75
